AirNav   Pilot Hours Calculator
 
 1262 users online  

NJ78 Kearny Helistop
Kearny, New Jersey, USA

GOING TO KEARNY?


FAA INFORMATION EFFECTIVE 07 NOVEMBER 2019

Location

FAA Identifier: NJ78
Lat/Long: 40-44-13.3650N 074-04-47.0000W
40-44.222750N 074-04.783333W
40.7370458,-74.0797222
(estimated)
Elevation: 9 ft. / 3 m (estimated)
Variation: 13W (1985)
From city: 3 miles SW of KEARNY, NJ
Time zone: UTC -5 (UTC -4 during Daylight Saving Time)
Zip code: 07032

Heliport Operations

Heliport use: Private use. Permission required prior to landing
Activation date: 10/1974
Control tower: no
ARTCC: NEW YORK CENTER
FSS: MILLVILLE FLIGHT SERVICE STATION
Attendance: UNATNDD
Wind indicator: yes
Segmented circle: yes

Heliport Communications

WX AWOS-3PT at JRB (4 nm SE): 128.175 (212-425-1534)
WX ASOS at EWR (5 nm SW): PHONE 973-621-2892
WX ASOS at TEB (7 nm N): 132.025 (201-393-0855)
WX ASOS at LGA (10 nm E): PHONE 718-672-6317
WX AWOS-3 at LDJ (10 nm SW): 124.025 (908-862-7383)
WX ASOS at CDW (12 nm NW): 135.5 (973-575-4417)
WX ASOS at JFK (15 nm SE): PHONE 718-656-0956
WX AWOS-3 at MMU (16 nm W): PHONE 973-290-0135

Nearby radio navigation aids

VOR radial/distance  VOR name  Freq  Var
TEBr198/6.7TETERBORO VOR/DME108.4011W
LGAr266/10.0LA GUARDIA VOR/DME113.1012W
CRIr323/11.3CANARSIE VOR/DME112.3011W
JFKr306/15.4KENNEDY VOR/DME115.9012W
COLr019/25.8COLTS NECK VOR/DME115.4011W
SAXr145/28.7SPARTA VORTAC115.7011W
SBJr083/31.5SOLBERG VOR/DME112.9010W
BWZr107/33.9BROADWAY VOR/DME114.2011W
DPKr277/35.4DEER PARK VOR/DME117.7012W
RBVr041/37.3ROBBINSVILLE VORTAC113.8010W
STWr124/39.0STILLWATER VOR/DME109.6011W
CMKr227/39.6CARMEL VOR/DME116.6012W

 
NDB name  Hdg/Dist  Freq  Var  ID
TORBY161/4.721412WTE - .
CHATHAM104/15.925413WCAT -.-. .- -
BABYLON291/31.927514WBBN -... -... -.

Heliport Services

Runway Information

Helipad H1

Dimensions: 85 x 85 ft. / 26 x 26 m
Surface: asphalt, in fair condition
Latitude: 40-44.222750N
Longitude: 074-05.783333W
Elevation: 9.0 ft.
Traffic pattern: leftleft
Markings: none, in fair condition

Heliport Ownership and Management from official FAA records

Ownership: Privately-owned
Owner: PUB.SERVICE ELEC.& GAS CO.
80 PARK PLAZA, L1A
NEWARK, NJ 07102
Phone 973-430-8383
Manager: JOANNE GRAZIANO
80 PARK PLAZA, L1A
NEWARK, NJ 07102
Phone 973-430-8383
TRANSPORTATION COORDINATOR.

Additional Remarks

FOR CD CTC NEW YORK APCH AT 800-645-3206.

Instrument Procedures

There are no published instrument procedures at NJ78.

Some nearby airports with instrument procedures:

KJRA - West 30th St Heliport (3 nm E)
KJRB - Downtown Manhattan/Wall Street Heliport (4 nm SE)
KEWR - Newark Liberty International Airport (5 nm SW)
6N5 - East 34th Street Heliport (5 nm E)
KTEB - Teterboro Airport (7 nm N)
KLGA - LaGuardia Airport (10 nm E)
KLDJ - Linden Airport (10 nm SW)
KCDW - Essex County Airport (12 nm NW)
KJFK - John F Kennedy International Airport (15 nm SE)
KMMU - Morristown Municipal Airport (16 nm W)
 
Loc | Ops | Rwys | IFR | FBO | Links
Com | Nav | Svcs | Stats | Notes
Area around NJ78 (Kearny Helistop)
 
Road maps at: MapQuest Bing Google
 
Aerial photo
No photo
 
Sectional chart

 
Airport distance calculator
Flying to Kearny Helistop? Find the distance to fly.

From to NJ78

Sunrise and sunset
Times for 22-Nov-2019
 Local
(UTC-5)
 Zulu
(UTC)
Morning civil twilight06:2211:22
Sunrise06:5211:52
Sunset16:3321:33
Evening civil twilight17:0222:02

Current date and time
Zulu (UTC)  22-Nov-2019 22:39:24
Local (UTC-5)  22-Nov-2019 17:39:24
 
METAR
KJRB 
4nm SE 
222156Z AUTO VRB04KT CLR 08/02 A2980 RMK AO2 PK WND 28037/2057 SLP092 T00830017 PWINO
KEWR 
5nm SW 
222151Z 30010KT 10SM FEW025 FEW120 SCT250 08/M01 A2981 RMK AO2 PK WND 29027/2126 SLP093 T00831006
KNYC 
6nm NE 
222151Z AUTO 29010G17KT 260V330 10SM FEW045 08/M01 A2981 RMK AO2 SLP086 T00781011 $
KTEB 
8nm N 
222151Z 33010KT 10SM FEW049 07/02 A2980 RMK AO2 SLP090 T00720017
KLGA 
9nm E 
222151Z 31015KT 10SM FEW040 SCT150 BKN250 08/M01 A2979 RMK AO2 PK WND 30028/2052 SLP086 T00831006
KLDJ 
10nm SW 
222215Z AUTO 32012G19KT 10SM CLR 08/M01 A2982 RMK AO2 T00751010
KCDW 
13nm NW 
222153Z 32012G18KT 10SM CLR 08/M02 A2981 RMK AO2 SLP102 T00831017
KJFK 
16nm SE 
222151Z 31013G21KT 10SM FEW024 FEW041 SCT150 BKN250 08/01 A2980 RMK AO2 PK WND 30032/2101 SLP091 T00780011 $
KMMU 
16nm W 
222145Z 33010G24KT 10SM SCT038 07/M01 A2981
TAF
KEWR 
5nm SW 
221957Z 2220/2324 31017G25KT P6SM SCT025 SCT060 BKN120 FM222100 31019G27KT P6SM FEW050 FM230500 30012KT P6SM SKC FM230900 28008KT P6SM SKC FM231800 25007KT P6SM SCT250 FM232200 21006KT P6SM FEW150 BKN250
KTEB 
8nm N 
221957Z 2220/2324 31015G23KT P6SM SCT030 SCT060 BKN120 FM222100 31016G25KT P6SM FEW050 FM230500 30011KT P6SM SKC FM230900 28007KT P6SM SKC FM231800 25007KT P6SM SCT250 FM232200 21006KT P6SM FEW150 BKN250
KLGA 
9nm E 
221957Z 2220/2324 31017G25KT P6SM SCT020 SCT060 BKN120 FM222200 31019G28KT P6SM FEW050 FM230500 30013G19KT P6SM SKC FM230900 29010KT P6SM SKC FM231400 28009KT P6SM SKC FM231800 26008KT P6SM SCT250 FM232200 22007KT P6SM FEW150 BKN250
KJFK 
16nm SE 
221957Z 2220/2324 31018G26KT P6SM SCT020 SCT060 BKN120 FM222200 31020G30KT P6SM FEW045 FM230500 30013G20KT P6SM SKC FM230900 30011KT P6SM SKC FM231400 27009KT P6SM SKC FM231800 25008KT P6SM SCT250 FM232200 22008KT P6SM FEW150 BKN250
NOTAMs
Click for the latest NOTAMs
NOTAMs are issued by the DoD/FAA and will open in a separate window not controlled by AirNav.

 

 
 

Would you like to see your business listed on this page?

 If your business provides an interesting product or service to pilots, flight crews, aircraft, or users of the Kearny Helistop, you should consider listing it here.  To start the listing process, click on the button below
 
Add a business
 

Other Pages about Kearny Helistop

Update a link
 
Copyright © AirNav, LLC. All rights reserved. Privacy Policy  Contact